Time,TemperatureF,DewpointF,PressureIn,WindDirection,WindDirectionDegrees,WindSpeedMPH,WindSpeedGustMPH,Humidity,HourlyPrecipIn,Conditions,Clouds,dailyrainin,SoftwareType,DateUTC
2013-11-11 00:00:00,35.4,31.9,30.28,West,260,0.0,2.0,87,0.00,,,0.00,Wunderground v.1.15,2013-11-11 05:00:00,
2013-11-11 00:05:00,35.3,31.8,30.28,West,260,0.0,2.0,87,0.00,,,0.00,Wunderground v.1.15,2013-11-11 05:05:00,
2013-11-11 00:15:00,35.1,31.6,30.27,West,260,0.0,2.0,87,0.00,,,0.00,Wunderground v.1.15,2013-11-11 05:15:00,
2013-11-11 00:20:00,34.9,31.4,30.27,West,260,0.0,2.0,87,0.00,,,0.00,Wunderground v.1.15,2013-11-11 05:20:00,
2013-11-11 00:30:00,34.6,31.4,30.28,West,260,0.0,2.0,88,0.00,,,0.00,Wunderground v.1.15,2013-11-11 05:30:00,
2013-11-11 00:35:00,34.6,31.7,30.28,West,260,0.0,2.0,89,0.00,,,0.00,Wunderground v.1.15,2013-11-11 05:35:00,
2013-11-11 00:40:00,34.8,31.9,30.28,West,260,0.0,2.0,89,0.00,,,0.00,Wunderground v.1.15,2013-11-11 05:40:00,
2013-11-11 00:45:00,34.8,31.9,30.28,West,260,0.0,2.0,89,0.00,,,0.00,Wunderground v.1.15,2013-11-11 05:45:00,
2013-11-11 00:50:00,34.8,31.9,30.28,West,260,0.0,2.0,89,0.00,,,0.00,Wunderground v.1.15,2013-11-11 05:50:00,
2013-11-11 00:55:00,34.7,31.8,30.28,West,260,0.0,2.0,89,0.00,,,0.00,Wunderground v.1.15,2013-11-11 05:55:00,
2013-11-11 01:05:00,34.4,31.5,30.27,West,260,0.0,2.0,89,0.00,,,0.00,Wunderground v.1.15,2013-11-11 06:05:00,
2013-11-11 01:10:00,34.3,31.7,30.27,West,260,0.0,2.0,90,0.00,,,0.00,Wunderground v.1.15,2013-11-11 06:10:00,
2013-11-11 01:15:00,34.2,31.6,30.27,West,260,0.0,2.0,90,0.00,,,0.00,Wunderground v.1.15,2013-11-11 06:15:00,
2013-11-11 01:25:00,34.1,31.5,30.27,West,260,0.0,2.0,90,0.00,,,0.00,Wunderground v.1.15,2013-11-11 06:25:00,
2013-11-11 01:30:00,34.0,31.4,30.27,West,260,0.0,2.0,90,0.00,,,0.00,Wunderground v.1.15,2013-11-11 06:30:00,
2013-11-11 01:35:00,33.9,31.3,30.27,West,260,0.0,2.0,90,0.00,,,0.00,Wunderground v.1.15,2013-11-11 06:35:00,
2013-11-11 01:40:00,33.7,31.4,30.27,West,260,0.0,2.0,91,0.00,,,0.00,Wunderground v.1.15,2013-11-11 06:40:00,
2013-11-11 01:45:00,33.7,31.4,30.26,West,260,0.0,2.0,91,0.00,,,0.00,Wunderground v.1.15,2013-11-11 06:45:00,
2013-11-11 01:50:00,33.7,31.4,30.26,West,260,0.0,2.0,91,0.00,,,0.00,Wunderground v.1.15,2013-11-11 06:50:00,
2013-11-11 01:55:00,33.5,31.2,30.25,West,260,0.0,2.0,91,0.00,,,0.00,Wunderground v.1.15,2013-11-11 06:55:00,
2013-11-11 02:00:00,33.3,31.0,30.25,West,260,0.0,2.0,91,0.00,,,0.00,Wunderground v.1.15,2013-11-11 07:00:00,
2013-11-11 02:10:00,33.1,31.0,30.25,West,260,0.0,2.0,92,0.00,,,0.00,Wunderground v.1.15,2013-11-11 07:10:00,
2013-11-11 02:15:00,33.3,31.5,30.25,West,260,0.0,2.0,93,0.00,,,0.00,Wunderground v.1.15,2013-11-11 07:15:00,
2013-11-11 02:20:00,33.5,31.7,30.26,West,260,0.0,2.0,93,0.00,,,0.00,Wunderground v.1.15,2013-11-11 07:20:00,
2013-11-11 02:30:00,34.0,31.9,30.26,West,260,0.0,2.0,92,0.00,,,0.00,Wunderground v.1.15,2013-11-11 07:30:00,
2013-11-11 02:35:00,34.2,32.1,30.26,West,260,0.0,2.0,92,0.00,,,0.00,Wunderground v.1.15,2013-11-11 07:35:00,
2013-11-11 02:40:00,34.4,32.3,30.26,West,260,0.0,2.0,92,0.00,,,0.00,Wunderground v.1.15,2013-11-11 07:40:00,
2013-11-11 02:45:00,34.5,32.4,30.26,West,260,0.0,2.0,92,0.00,,,0.00,Wunderground v.1.15,2013-11-11 07:45:00,
2013-11-11 02:50:00,34.6,32.5,30.26,West,260,0.0,2.0,92,0.00,,,0.00,Wunderground v.1.15,2013-11-11 07:50:00,
2013-11-11 03:00:00,34.8,32.4,30.25,West,260,0.0,2.0,91,0.00,,,0.00,Wunderground v.1.15,2013-11-11 08:00:00,
2013-11-11 03:10:00,35.0,32.6,30.25,West,260,0.0,2.0,91,0.00,,,0.00,Wunderground v.1.15,2013-11-11 08:10:00,
2013-11-11 03:15:00,35.0,32.6,30.24,West,260,0.0,2.0,91,0.00,,,0.00,Wunderground v.1.15,2013-11-11 08:15:00,
2013-11-11 03:20:00,35.1,32.5,30.24,West,260,0.0,2.0,90,0.00,,,0.00,Wunderground v.1.15,2013-11-11 08:20:00,
2013-11-11 03:25:00,35.2,32.6,30.24,WSW,254,0.0,2.0,90,0.00,,,0.00,Wunderground v.1.15,2013-11-11 08:25:00,
2013-11-11 03:30:00,35.3,32.4,30.24,WSW,246,1.0,1.0,89,0.00,,,0.00,Wunderground v.1.15,2013-11-11 08:30:00,
2013-11-11 03:40:00,35.5,32.6,30.24,WSW,246,0.0,2.0,89,0.00,,,0.00,Wunderground v.1.15,2013-11-11 08:40:00,
2013-11-11 03:45:00,35.5,32.6,30.24,WSW,246,0.0,2.0,89,0.00,,,0.00,Wunderground v.1.15,2013-11-11 08:45:00,
2013-11-11 03:50:00,35.6,32.4,30.24,WSW,246,0.0,2.0,88,0.00,,,0.00,Wunderground v.1.15,2013-11-11 08:50:00,
2013-11-11 03:55:00,35.6,32.4,30.24,WSW,246,0.0,2.0,88,0.00,,,0.00,Wunderground v.1.15,2013-11-11 08:55:00,
2013-11-11 04:00:00,35.7,32.5,30.23,WSW,246,0.0,2.0,88,0.00,,,0.00,Wunderground v.1.15,2013-11-11 09:00:00,
2013-11-11 04:10:00,35.8,32.6,30.23,WSW,246,0.0,2.0,88,0.00,,,0.00,Wunderground v.1.15,2013-11-11 09:10:00,
2013-11-11 04:15:00,35.9,32.7,30.23,WSW,246,0.0,2.0,88,0.00,,,0.00,Wunderground v.1.15,2013-11-11 09:15:00,
2013-11-11 04:25:00,36.1,32.9,30.23,WSW,246,0.0,2.0,88,0.00,,,0.00,Wunderground v.1.15,2013-11-11 09:25:00,
2013-11-11 04:30:00,36.2,33.0,30.23,WSW,246,0.0,2.0,88,0.00,,,0.00,Wunderground v.1.15,2013-11-11 09:30:00,
2013-11-11 04:35:00,36.3,33.1,30.22,WSW,246,0.0,2.0,88,0.00,,,0.00,Wunderground v.1.15,2013-11-11 09:35:00,
2013-11-11 04:40:00,36.4,32.9,30.22,SW,228,1.0,2.0,87,0.00,,,0.00,Wunderground v.1.15,2013-11-11 09:40:00,
2013-11-11 04:45:00,36.6,33.1,30.21,South,190,1.0,2.0,87,0.00,,,0.00,Wunderground v.1.15,2013-11-11 09:45:00,
2013-11-11 04:50:00,36.8,33.0,30.22,SSW,211,1.0,1.0,86,0.00,,,0.00,Wunderground v.1.15,2013-11-11 09:50:00,
2013-11-11 04:55:00,37.0,33.2,30.21,SSW,205,1.0,2.0,86,0.00,,,0.00,Wunderground v.1.15,2013-11-11 09:55:00,
2013-11-11 05:00:00,37.2,33.4,30.21,SSW,205,0.0,2.0,86,0.00,,,0.00,Wunderground v.1.15,2013-11-11 10:00:00,
2013-11-11 05:05:00,37.3,33.5,30.21,SSW,205,0.0,2.0,86,0.00,,,0.00,Wunderground v.1.15,2013-11-11 10:05:00,
2013-11-11 05:10:00,37.3,33.5,30.20,SSW,205,0.0,2.0,86,0.00,,,0.00,Wunderground v.1.15,2013-11-11 10:10:00,
2013-11-11 05:20:00,37.5,33.4,30.20,SSW,205,0.0,2.0,85,0.00,,,0.00,Wunderground v.1.15,2013-11-11 10:20:00,
2013-11-11 05:25:00,37.7,33.6,30.21,SSW,205,0.0,2.0,85,0.00,,,0.00,Wunderground v.1.15,2013-11-11 10:25:00,
2013-11-11 05:30:00,37.9,33.8,30.21,SSW,201,1.0,2.0,85,0.00,,,0.00,Wunderground v.1.15,2013-11-11 10:30:00,
2013-11-11 05:40:00,38.2,33.8,30.21,SSW,200,0.0,2.0,84,0.00,,,0.00,Wunderground v.1.15,2013-11-11 10:40:00,
2013-11-11 05:45:00,38.4,33.7,30.21,SSW,207,1.0,2.0,83,0.00,,,0.00,Wunderground v.1.15,2013-11-11 10:45:00,
2013-11-11 05:50:00,38.7,33.7,30.21,SSW,207,1.0,1.0,82,0.00,,,0.00,Wunderground v.1.15,2013-11-11 10:50:00,
2013-11-11 05:55:00,38.9,33.9,30.21,SSW,192,0.0,2.0,82,0.00,,,0.00,Wunderground v.1.15,2013-11-11 10:55:00,
2013-11-11 06:00:00,39.0,34.0,30.21,South,191,0.0,5.0,82,0.00,,,0.00,Wunderground v.1.15,2013-11-11 11:00:00,
2013-11-11 06:10:00,39.2,33.9,30.21,South,191,0.0,5.0,81,0.00,,,0.00,Wunderground v.1.15,2013-11-11 11:10:00,
2013-11-11 06:15:00,39.2,33.9,30.21,South,191,0.0,5.0,81,0.00,,,0.00,Wunderground v.1.15,2013-11-11 11:15:00,
2013-11-11 06:20:00,39.3,34.0,30.21,South,191,0.0,5.0,81,0.00,,,0.00,Wunderground v.1.15,2013-11-11 11:20:00,
2013-11-11 06:25:00,39.3,34.0,30.20,South,191,0.0,5.0,81,0.00,,,0.00,Wunderground v.1.15,2013-11-11 11:25:00,
2013-11-11 06:30:00,39.4,34.1,30.20,South,191,0.0,5.0,81,0.00,,,0.00,Wunderground v.1.15,2013-11-11 11:30:00,
2013-11-11 06:35:00,39.5,34.2,30.19,South,190,1.0,5.0,81,0.00,,,0.00,Wunderground v.1.15,2013-11-11 11:35:00,
2013-11-11 06:40:00,39.5,34.2,30.19,South,190,1.0,5.0,81,0.00,,,0.00,Wunderground v.1.15,2013-11-11 11:40:00,
2013-11-11 06:45:00,39.5,34.2,30.19,SSW,192,1.0,5.0,81,0.00,,,0.00,Wunderground v.1.15,2013-11-11 11:45:00,
2013-11-11 06:55:00,39.6,34.2,30.19,South,191,0.0,5.0,81,0.00,,,0.00,Wunderground v.1.15,2013-11-11 11:55:00,
2013-11-11 07:00:00,39.7,34.3,30.19,SSW,193,1.0,5.0,81,0.00,,,0.00,Wunderground v.1.15,2013-11-11 12:00:00,
2013-11-11 07:05:00,39.7,34.3,30.19,SSW,193,1.0,5.0,81,0.00,,,0.00,Wunderground v.1.15,2013-11-11 12:05:00,
2013-11-11 07:10:00,39.8,34.4,30.18,SSW,193,0.0,5.0,81,0.00,,,0.00,Wunderground v.1.15,2013-11-11 12:10:00,
2013-11-11 07:15:00,39.8,34.4,30.18,SSW,209,0.0,5.0,81,0.00,,,0.00,Wunderground v.1.15,2013-11-11 12:15:00,
2013-11-11 07:20:00,40.0,34.6,30.18,SSW,203,1.0,5.0,81,0.00,,,0.00,Wunderground v.1.15,2013-11-11 12:20:00,
2013-11-11 07:25:00,40.1,34.7,30.18,SSE,163,1.0,5.0,81,0.00,,,0.00,Wunderground v.1.15,2013-11-11 12:25:00,
2013-11-11 07:35:00,40.5,34.5,30.18,South,190,1.0,3.0,79,0.00,,,0.00,Wunderground v.1.15,2013-11-11 12:35:00,
2013-11-11 07:40:00,40.8,34.8,30.18,South,177,1.0,1.0,79,0.00,,,0.00,Wunderground v.1.15,2013-11-11 12:40:00,
2013-11-11 07:45:00,40.9,34.6,30.18,South,176,1.0,5.0,78,0.00,,,0.00,Wunderground v.1.15,2013-11-11 12:45:00,
2013-11-11 07:50:00,41.1,34.8,30.19,South,176,1.0,5.0,78,0.00,,,0.00,Wunderground v.1.15,2013-11-11 12:50:00,
2013-11-11 08:00:00,41.4,34.7,30.18,South,190,1.0,5.0,77,0.00,,,0.00,Wunderground v.1.15,2013-11-11 13:00:00,
2013-11-11 08:05:00,41.5,34.8,30.18,SW,219,2.0,5.0,77,0.00,,,0.00,Wunderground v.1.15,2013-11-11 13:05:00,
2013-11-11 08:10:00,41.6,34.9,30.18,SSW,195,2.0,5.0,77,0.00,,,0.00,Wunderground v.1.15,2013-11-11 13:10:00,
2013-11-11 08:15:00,41.7,35.0,30.18,South,175,2.0,5.0,77,0.00,,,0.00,Wunderground v.1.15,2013-11-11 13:15:00,
2013-11-11 08:20:00,41.8,35.1,30.18,South,182,2.0,2.0,77,0.00,,,0.00,Wunderground v.1.15,2013-11-11 13:20:00,
2013-11-11 08:25:00,41.9,34.9,30.18,SSE,160,1.0,5.0,76,0.00,,,0.00,Wunderground v.1.15,2013-11-11 13:25:00,
2013-11-11 08:30:00,42.0,35.0,30.18,South,178,1.0,1.0,76,0.00,,,0.00,Wunderground v.1.15,2013-11-11 13:30:00,
2013-11-11 08:40:00,42.4,35.0,30.17,SSW,192,3.0,3.0,75,0.00,,,0.00,Wunderground v.1.15,2013-11-11 13:40:00,
2013-11-11 08:45:00,42.6,35.2,30.17,SSW,202,3.0,5.0,75,0.00,,,0.00,Wunderground v.1.15,2013-11-11 13:45:00,
2013-11-11 08:50:00,42.7,35.0,30.17,SW,234,3.0,3.0,74,0.00,,,0.00,Wunderground v.1.15,2013-11-11 13:50:00,
2013-11-11 08:55:00,42.9,35.2,30.17,SSW,205,2.0,4.0,74,0.00,,,0.00,Wunderground v.1.15,2013-11-11 13:55:00,
2013-11-11 09:00:00,43.1,35.0,30.17,SW,225,3.0,5.0,73,0.00,,,0.00,Wunderground v.1.15,2013-11-11 14:00:00,
2013-11-11 09:10:00,43.4,35.3,30.17,SSW,200,5.0,9.0,73,0.00,,,0.00,Wunderground v.1.15,2013-11-11 14:10:00,
2013-11-11 09:20:00,43.8,35.4,30.17,SSW,199,4.0,6.0,72,0.00,,,0.00,Wunderground v.1.15,2013-11-11 14:20:00,
2013-11-11 09:25:00,44.1,35.3,30.17,SSW,196,5.0,6.0,71,0.00,,,0.00,Wunderground v.1.15,2013-11-11 14:25:00,
2013-11-11 09:30:00,44.3,35.5,30.16,South,188,5.0,5.0,71,0.00,,,0.00,Wunderground v.1.15,2013-11-11 14:30:00,
2013-11-11 09:35:00,44.6,35.4,30.15,SSE,150,4.0,5.0,70,0.00,,,0.00,Wunderground v.1.15,2013-11-11 14:35:00,
2013-11-11 09:40:00,45.0,35.8,30.15,SSW,198,4.0,7.0,70,0.00,,,0.00,Wunderground v.1.15,2013-11-11 14:40:00,
2013-11-11 09:50:00,45.8,35.8,30.16,WSW,241,5.0,5.0,68,0.00,,,0.00,Wunderground v.1.15,2013-11-11 14:50:00,
2013-11-11 09:55:00,46.4,35.7,30.16,SSW,202,5.0,5.0,66,0.00,,,0.00,Wunderground v.1.15,2013-11-11 14:55:00,
2013-11-11 10:00:00,46.5,35.4,30.15,South,180,5.0,6.0,65,0.00,,,0.00,Wunderground v.1.15,2013-11-11 15:00:00,
2013-11-11 10:05:00,46.5,35.4,30.15,South,179,7.0,14.0,65,0.00,,,0.00,Wunderground v.1.15,2013-11-11 15:05:00,
2013-11-11 10:10:00,46.7,35.6,30.15,SSW,213,7.0,7.0,65,0.00,,,0.00,Wunderground v.1.15,2013-11-11 15:10:00,
2013-11-11 10:20:00,46.9,35.7,30.15,SSW,211,5.0,5.0,65,0.00,,,0.00,Wunderground v.1.15,2013-11-11 15:20:00,
2013-11-11 10:25:00,47.1,35.9,30.15,SSW,198,5.0,9.0,65,0.00,,,0.00,Wunderground v.1.15,2013-11-11 15:25:00,
2013-11-11 10:30:00,47.3,36.1,30.15,SSW,199,5.0,5.0,65,0.00,,,0.00,Wunderground v.1.15,2013-11-11 15:30:00,
2013-11-11 10:35:00,47.5,35.9,30.14,SSW,205,5.0,5.0,64,0.00,,,0.00,Wunderground v.1.15,2013-11-11 15:35:00,
2013-11-11 10:40:00,47.7,36.1,30.15,South,183,6.0,11.0,64,0.00,,,0.00,Wunderground v.1.15,2013-11-11 15:40:00,
2013-11-11 10:45:00,47.8,36.2,30.15,South,182,5.0,11.0,64,0.00,,,0.00,Wunderground v.1.15,2013-11-11 15:45:00,
2013-11-11 10:55:00,48.0,36.0,30.14,SSE,161,7.0,7.0,63,0.00,,,0.00,Wunderground v.1.15,2013-11-11 15:55:00,
2013-11-11 11:00:00,48.0,36.4,30.14,SW,217,5.0,5.0,64,0.00,,,0.00,Wunderground v.1.15,2013-11-11 16:00:00,
2013-11-11 11:05:00,47.9,36.3,30.14,South,176,3.0,5.0,64,0.00,,,0.00,Wunderground v.1.15,2013-11-11 16:05:00,
2013-11-11 11:10:00,47.8,36.2,30.14,SSW,192,4.0,7.0,64,0.00,,,0.00,Wunderground v.1.15,2013-11-11 16:10:00,
2013-11-11 11:15:00,47.9,36.7,30.14,SSW,210,5.0,7.0,65,0.00,,,0.00,Wunderground v.1.15,2013-11-11 16:15:00,
2013-11-11 11:20:00,48.0,36.8,30.13,South,183,4.0,4.0,65,0.00,,,0.00,Wunderground v.1.15,2013-11-11 16:20:00,
2013-11-11 11:30:00,48.2,37.0,30.13,SW,232,3.0,6.0,65,0.00,,,0.00,Wunderground v.1.15,2013-11-11 16:30:00,
2013-11-11 11:40:00,48.8,37.2,30.12,SSW,200,5.0,5.0,64,0.00,,,0.00,Wunderground v.1.15,2013-11-11 16:40:00,
2013-11-11 11:45:00,49.1,37.4,30.12,SW,220,4.0,6.0,64,0.00,,,0.00,Wunderground v.1.15,2013-11-11 16:45:00,
2013-11-11 11:50:00,49.3,37.6,30.12,WSW,238,4.0,4.0,64,0.00,,,0.00,Wunderground v.1.15,2013-11-11 16:50:00,
2013-11-11 11:55:00,49.5,37.4,30.12,SSW,211,5.0,5.0,63,0.00,,,0.00,Wunderground v.1.15,2013-11-11 16:55:00,
2013-11-11 12:00:00,49.7,38.0,30.12,South,191,5.0,5.0,64,0.00,,,0.00,Wunderground v.1.15,2013-11-11 17:00:00,
2013-11-11 12:05:00,49.8,38.1,30.13,SW,227,5.0,5.0,64,0.00,,,0.00,Wunderground v.1.15,2013-11-11 17:05:00,
2013-11-11 12:10:00,50.1,38.4,30.12,SW,227,4.0,4.0,64,0.00,,,0.00,Wunderground v.1.15,2013-11-11 17:10:00,
2013-11-11 12:20:00,50.6,38.9,30.12,SW,221,4.0,9.0,64,0.00,,,0.00,Wunderground v.1.15,2013-11-11 17:20:00,
2013-11-11 12:25:00,50.5,39.2,30.12,SSW,198,4.0,9.0,65,0.00,,,0.00,Wunderground v.1.15,2013-11-11 17:25:00,
2013-11-11 12:30:00,50.6,39.3,30.12,WSW,258,3.0,5.0,65,0.00,,,0.00,Wunderground v.1.15,2013-11-11 17:30:00,
2013-11-11 12:35:00,50.8,39.5,30.12,SW,218,3.0,6.0,65,0.00,,,0.00,Wunderground v.1.15,2013-11-11 17:35:00,
2013-11-11 12:40:00,50.8,39.5,30.11,SW,236,4.0,10.0,65,0.00,,,0.00,Wunderground v.1.15,2013-11-11 17:40:00,
2013-11-11 12:45:00,50.8,39.5,30.12,SSW,200,5.0,10.0,65,0.00,,,0.00,Wunderground v.1.15,2013-11-11 17:45:00,
2013-11-11 12:50:00,50.8,39.8,30.11,WNW,300,4.0,5.0,66,0.00,,,0.00,Wunderground v.1.15,2013-11-11 17:50:00,
2013-11-11 12:55:00,50.7,39.7,30.11,WSW,242,4.0,8.0,66,0.00,,,0.00,Wunderground v.1.15,2013-11-11 17:55:00,
2013-11-11 13:00:00,50.7,39.7,30.11,WSW,239,4.0,4.0,66,0.00,,,0.00,Wunderground v.1.15,2013-11-11 18:00:00,
2013-11-11 13:10:00,50.9,39.9,30.11,WSW,242,2.0,9.0,66,0.00,,,0.00,Wunderground v.1.15,2013-11-11 18:10:00,
2013-11-11 13:20:00,50.9,40.3,30.10,SW,229,3.0,5.0,67,0.00,,,0.00,Wunderground v.1.15,2013-11-11 18:20:00,
2013-11-11 13:25:00,50.9,40.3,30.10,SW,231,3.0,5.0,67,0.00,,,0.00,Wunderground v.1.15,2013-11-11 18:25:00,
2013-11-11 13:30:00,50.9,40.3,30.10,SW,220,4.0,5.0,67,0.00,,,0.00,Wunderground v.1.15,2013-11-11 18:30:00,
2013-11-11 13:35:00,50.9,40.3,30.10,WSW,251,3.0,5.0,67,0.00,,,0.00,Wunderground v.1.15,2013-11-11 18:35:00,
2013-11-11 13:45:00,50.8,40.2,30.10,West,262,3.0,5.0,67,0.00,,,0.00,Wunderground v.1.15,2013-11-11 18:45:00,
2013-11-11 13:50:00,50.8,40.6,30.09,SSW,205,3.0,3.0,68,0.00,,,0.00,Wunderground v.1.15,2013-11-11 18:50:00,
2013-11-11 13:55:00,50.7,40.5,30.09,SW,234,3.0,5.0,68,0.00,,,0.00,Wunderground v.1.15,2013-11-11 18:55:00,
2013-11-11 14:00:00,50.7,40.5,30.09,SW,236,3.0,5.0,68,0.00,,,0.00,Wunderground v.1.15,2013-11-11 19:00:00,
2013-11-11 14:10:00,50.8,40.6,30.09,SW,219,3.0,5.0,68,0.00,,,0.00,Wunderground v.1.15,2013-11-11 19:10:00,
2013-11-11 14:15:00,50.9,41.1,30.10,West,263,4.0,5.0,69,0.00,,,0.00,Wunderground v.1.15,2013-11-11 19:15:00,
2013-11-11 14:20:00,50.9,41.1,30.09,West,267,3.0,5.0,69,0.00,,,0.00,Wunderground v.1.15,2013-11-11 19:20:00,
2013-11-11 14:25:00,50.9,41.1,30.09,West,265,2.0,5.0,69,0.00,,,0.00,Wunderground v.1.15,2013-11-11 19:25:00,
2013-11-11 14:30:00,51.0,41.2,30.09,SW,232,2.0,5.0,69,0.00,,,0.00,Wunderground v.1.15,2013-11-11 19:30:00,
2013-11-11 14:35:00,51.0,41.6,30.10,SW,228,2.0,5.0,70,0.00,,,0.00,Wunderground v.1.15,2013-11-11 19:35:00,
2013-11-11 14:40:00,51.0,41.9,30.10,WSW,254,2.0,6.0,71,0.00,,,0.00,Wunderground v.1.15,2013-11-11 19:40:00,
2013-11-11 14:45:00,50.9,41.8,30.10,NW,321,2.0,6.0,71,0.00,,,0.00,Wunderground v.1.15,2013-11-11 19:45:00,
2013-11-11 14:55:00,50.8,41.7,30.10,North,355,5.0,7.0,71,0.00,,,0.00,Wunderground v.1.15,2013-11-11 19:55:00,
2013-11-11 15:00:00,50.7,41.3,30.10,WSW,249,5.0,7.0,70,0.00,,,0.00,Wunderground v.1.15,2013-11-11 20:00:00,
2013-11-11 15:05:00,50.5,41.1,30.10,NNW,327,4.0,7.0,70,0.00,,,0.00,Wunderground v.1.15,2013-11-11 20:05:00,
2013-11-11 15:15:00,50.3,41.3,30.10,WNW,289,4.0,6.0,71,0.00,,,0.00,Wunderground v.1.15,2013-11-11 20:15:00,
2013-11-11 15:20:00,50.1,41.4,30.11,WNW,284,5.0,5.0,72,0.00,,,0.00,Wunderground v.1.15,2013-11-11 20:20:00,
2013-11-11 15:25:00,49.7,41.4,30.11,NNW,336,6.0,10.0,73,0.00,,,0.00,Wunderground v.1.15,2013-11-11 20:25:00,
2013-11-11 15:30:00,49.2,42.0,30.11,WNW,290,6.0,8.0,76,0.00,,,0.00,Wunderground v.1.15,2013-11-11 20:30:00,
2013-11-11 15:35:00,48.4,42.2,30.12,NW,324,6.0,8.0,79,0.00,,,0.00,Wunderground v.1.15,2013-11-11 20:35:00,
2013-11-11 15:40:00,47.2,41.7,30.12,WNW,303,7.0,7.0,81,0.00,,,0.00,Wunderground v.1.15,2013-11-11 20:40:00,
2013-11-11 15:45:00,46.5,41.9,30.13,North,351,6.0,7.0,84,0.00,,,0.00,Wunderground v.1.15,2013-11-11 20:45:00,
2013-11-11 15:50:00,45.8,42.2,30.13,NW,325,5.0,5.0,87,0.00,,,0.00,Wunderground v.1.15,2013-11-11 20:50:00,
2013-11-11 16:00:00,44.9,42.1,30.13,NW,319,4.0,4.0,90,0.00,,,0.00,Wunderground v.1.15,2013-11-11 21:00:00,
2013-11-11 16:05:00,44.6,41.8,30.12,NW,324,3.0,5.0,90,0.00,,,0.01,Wunderground v.1.15,2013-11-11 21:05:00,
2013-11-11 16:10:00,44.3,41.8,30.13,NW,312,3.0,3.0,91,0.00,,,0.01,Wunderground v.1.15,2013-11-11 21:10:00,
2013-11-11 16:15:00,44.2,41.7,30.12,NW,319,3.0,5.0,91,0.04,,,0.02,Wunderground v.1.15,2013-11-11 21:15:00,
2013-11-11 16:25:00,43.6,41.1,30.13,NNW,346,5.0,7.0,91,0.04,,,0.02,Wunderground v.1.15,2013-11-11 21:25:00,
2013-11-11 16:35:00,43.0,40.8,30.14,WNW,286,5.0,8.0,92,0.00,,,0.02,Wunderground v.1.15,2013-11-11 21:35:00,
2013-11-11 16:40:00,42.8,40.9,30.15,NNW,342,5.0,5.0,93,0.00,,,0.02,Wunderground v.1.15,2013-11-11 21:40:00,
2013-11-11 16:45:00,42.8,40.9,30.14,NW,311,4.0,5.0,93,0.00,,,0.02,Wunderground v.1.15,2013-11-11 21:45:00,
2013-11-11 16:50:00,42.7,40.8,30.15,NW,317,4.0,6.0,93,0.00,,,0.02,Wunderground v.1.15,2013-11-11 21:50:00,
2013-11-11 16:55:00,42.7,41.1,30.15,NW,312,4.0,6.0,94,0.00,,,0.02,Wunderground v.1.15,2013-11-11 21:55:00,
2013-11-11 17:00:00,42.6,41.0,30.15,NW,305,4.0,5.0,94,0.00,,,0.02,Wunderground v.1.15,2013-11-11 22:00:00,
2013-11-11 17:10:00,42.5,40.6,30.16,NW,317,5.0,5.0,93,0.00,,,0.02,Wunderground v.1.15,2013-11-11 22:10:00,
2013-11-11 17:15:00,42.0,39.8,30.16,NW,311,5.0,6.0,92,0.00,,,0.02,Wunderground v.1.15,2013-11-11 22:15:00,
2013-11-11 17:25:00,40.8,38.9,30.17,NNE,12,6.0,9.0,93,0.00,,,0.02,Wunderground v.1.15,2013-11-11 22:25:00,
2013-11-11 17:30:00,40.2,38.3,30.17,NNW,330,6.0,9.0,93,0.00,,,0.02,Wunderground v.1.15,2013-11-11 22:30:00,
2013-11-11 17:35:00,39.7,37.8,30.18,NNW,333,7.0,9.0,93,0.00,,,0.03,Wunderground v.1.15,2013-11-11 22:35:00,
2013-11-11 17:45:00,38.8,36.9,30.18,NE,46,8.0,8.0,93,0.00,,,0.03,Wunderground v.1.15,2013-11-11 22:45:00,
2013-11-11 17:50:00,38.5,36.7,30.19,North,9,7.0,8.0,93,0.00,,,0.03,Wunderground v.1.15,2013-11-11 22:50:00,
2013-11-11 17:55:00,38.2,36.4,30.19,North,360,7.0,8.0,93,0.00,,,0.03,Wunderground v.1.15,2013-11-11 22:55:00,
2013-11-11 18:00:00,38.1,36.5,30.20,NW,310,7.0,13.0,94,0.00,,,0.03,Wunderground v.1.15,2013-11-11 23:00:00,
2013-11-11 18:05:00,38.0,36.4,30.20,NNW,333,7.0,13.0,94,0.00,,,0.03,Wunderground v.1.15,2013-11-11 23:05:00,
2013-11-11 18:15:00,37.7,36.1,30.20,NW,324,7.0,8.0,94,0.00,,,0.04,Wunderground v.1.15,2013-11-11 23:15:00,
2013-11-11 18:20:00,37.6,36.0,30.19,NNW,340,6.0,6.0,94,0.00,,,0.04,Wunderground v.1.15,2013-11-11 23:20:00,
2013-11-11 18:30:00,37.4,36.1,30.20,North,355,5.0,5.0,95,0.00,,,0.04,Wunderground v.1.15,2013-11-11 23:30:00,
2013-11-11 18:35:00,37.3,36.0,30.21,NNW,336,5.0,5.0,95,0.00,,,0.04,Wunderground v.1.15,2013-11-11 23:35:00,
2013-11-11 18:40:00,37.2,35.9,30.21,NNW,348,5.0,5.0,95,0.00,,,0.04,Wunderground v.1.15,2013-11-11 23:40:00,
2013-11-11 18:50:00,36.9,35.3,30.23,NW,325,6.0,6.0,94,0.00,,,0.04,Wunderground v.1.15,2013-11-11 23:50:00,
2013-11-11 18:55:00,36.6,35.0,30.23,West,281,6.0,6.0,94,0.00,,,0.04,Wunderground v.1.15,2013-11-11 23:55:00,
2013-11-11 19:00:00,36.5,34.9,30.24,North,351,6.0,10.0,94,0.00,,,0.04,Wunderground v.1.15,2013-11-12 00:00:00,
2013-11-11 19:05:00,36.3,34.7,30.24,WNW,290,6.0,10.0,94,0.00,,,0.05,Wunderground v.1.15,2013-11-12 00:05:00,
2013-11-11 19:15:00,35.8,34.2,30.25,NW,323,6.0,8.0,94,0.00,,,0.05,Wunderground v.1.15,2013-11-12 00:15:00,
2013-11-11 19:20:00,35.3,33.7,30.25,NW,311,6.0,8.0,94,0.04,,,0.06,Wunderground v.1.15,2013-11-12 00:20:00,
2013-11-11 19:30:00,34.4,32.9,30.26,NW,315,6.0,7.0,94,0.04,,,0.06,Wunderground v.1.15,2013-11-12 00:30:00,
2013-11-11 19:35:00,34.1,32.8,30.26,NNE,32,5.0,7.0,95,0.00,,,0.06,Wunderground v.1.15,2013-11-12 00:35:00,
2013-11-11 19:40:00,33.9,32.6,30.26,NNW,332,5.0,5.0,95,0.00,,,0.06,Wunderground v.1.15,2013-11-12 00:40:00,
2013-11-11 19:45:00,33.8,32.8,30.26,NE,44,5.0,5.0,96,0.00,,,0.07,Wunderground v.1.15,2013-11-12 00:45:00,
2013-11-11 19:50:00,33.7,32.7,30.27,NNW,328,4.0,4.0,96,0.00,,,0.07,Wunderground v.1.15,2013-11-12 00:50:00,
2013-11-11 19:55:00,33.7,32.7,30.28,NW,315,4.0,5.0,96,0.00,,,0.07,Wunderground v.1.15,2013-11-12 00:55:00,
2013-11-11 20:05:00,33.4,32.4,30.28,NNW,340,5.0,8.0,96,0.00,,,0.07,Wunderground v.1.15,2013-11-12 01:05:00,
2013-11-11 20:10:00,33.3,32.3,30.28,NW,326,6.0,7.0,96,0.00,,,0.08,Wunderground v.1.15,2013-11-12 01:10:00,
2013-11-11 20:15:00,33.3,32.3,30.29,North,355,6.0,7.0,96,0.00,,,0.08,Wunderground v.1.15,2013-11-12 01:15:00,
2013-11-11 20:20:00,33.4,32.4,30.29,NW,325,6.0,7.0,96,0.00,,,0.08,Wunderground v.1.15,2013-11-12 01:20:00,
2013-11-11 20:25:00,33.3,32.3,30.29,NW,314,7.0,7.0,96,0.00,,,0.08,Wunderground v.1.15,2013-11-12 01:25:00,
2013-11-11 20:30:00,33.2,32.2,30.29,ENE,67,6.0,6.0,96,0.00,,,0.08,Wunderground v.1.15,2013-11-12 01:30:00,
2013-11-11 20:35:00,33.1,32.1,30.30,NW,325,5.0,8.0,96,0.00,,,0.08,Wunderground v.1.15,2013-11-12 01:35:00,
2013-11-11 20:40:00,32.9,31.6,30.30,WNW,291,5.0,5.0,95,0.00,,,0.08,Wunderground v.1.15,2013-11-12 01:40:00,
2013-11-11 20:45:00,32.8,31.8,30.30,North,355,6.0,10.0,96,0.00,,,0.08,Wunderground v.1.15,2013-11-12 01:45:00,
2013-11-11 20:55:00,32.7,31.7,30.30,NE,48,5.0,5.0,96,0.00,,,0.08,Wunderground v.1.15,2013-11-12 01:55:00,
2013-11-11 21:00:00,32.6,31.6,30.30,North,360,5.0,5.0,96,0.00,,,0.08,Wunderground v.1.15,2013-11-12 02:00:00,
2013-11-11 21:05:00,32.6,31.6,30.31,WNW,301,5.0,5.0,96,0.00,,,0.08,Wunderground v.1.15,2013-11-12 02:05:00,
2013-11-11 21:15:00,32.6,31.6,30.31,WNW,292,2.0,5.0,96,0.00,,,0.08,Wunderground v.1.15,2013-11-12 02:15:00,
2013-11-11 21:20:00,32.6,31.6,30.32,NNW,337,3.0,6.0,96,0.00,,,0.08,Wunderground v.1.15,2013-11-12 02:20:00,
2013-11-11 21:25:00,32.6,31.8,30.32,NW,324,4.0,6.0,97,0.00,,,0.08,Wunderground v.1.15,2013-11-12 02:25:00,
2013-11-11 21:30:00,32.6,31.8,30.33,North,355,4.0,5.0,97,0.00,,,0.08,Wunderground v.1.15,2013-11-12 02:30:00,
2013-11-11 21:40:00,32.4,31.6,30.33,NNW,340,6.0,6.0,97,0.00,,,0.08,Wunderground v.1.15,2013-11-12 02:40:00,
2013-11-11 21:45:00,32.4,31.4,30.34,NW,323,5.0,7.0,96,0.00,,,0.08,Wunderground v.1.15,2013-11-12 02:45:00,
2013-11-11 21:50:00,32.3,31.3,30.34,NW,311,5.0,9.0,96,0.00,,,0.08,Wunderground v.1.15,2013-11-12 02:50:00,
2013-11-11 21:55:00,32.1,31.1,30.35,NW,312,6.0,9.0,96,0.00,,,0.08,Wunderground v.1.15,2013-11-12 02:55:00,
2013-11-11 22:00:00,32.0,31.0,30.35,NW,313,6.0,6.0,96,0.00,,,0.08,Wunderground v.1.15,2013-11-12 03:00:00,
2013-11-11 22:10:00,31.7,30.7,30.35,NNE,32,6.0,8.0,96,0.00,,,0.08,Wunderground v.1.15,2013-11-12 03:10:00,
2013-11-11 22:20:00,31.5,30.5,30.36,North,350,4.0,4.0,96,0.00,,,0.08,Wunderground v.1.15,2013-11-12 03:20:00,
2013-11-11 22:25:00,31.4,30.4,30.36,NW,308,4.0,5.0,96,0.00,,,0.08,Wunderground v.1.15,2013-11-12 03:25:00,
2013-11-11 22:30:00,31.4,30.6,30.36,NNW,335,4.0,4.0,97,0.00,,,0.08,Wunderground v.1.15,2013-11-12 03:30:00,
2013-11-11 22:35:00,31.4,30.6,30.36,North,350,4.0,5.0,97,0.00,,,0.08,Wunderground v.1.15,2013-11-12 03:35:00,
2013-11-11 22:45:00,31.3,30.5,30.37,NW,322,4.0,5.0,97,0.00,,,0.08,Wunderground v.1.15,2013-11-12 03:45:00,
2013-11-11 22:50:00,31.2,30.4,30.37,NNW,327,3.0,5.0,97,0.00,,,0.08,Wunderground v.1.15,2013-11-12 03:50:00,
2013-11-11 22:55:00,31.2,30.4,30.37,North,5,3.0,5.0,97,0.00,,,0.08,Wunderground v.1.15,2013-11-12 03:55:00,
2013-11-11 23:00:00,31.2,30.4,30.37,North,5,3.0,3.0,97,0.00,,,0.08,Wunderground v.1.15,2013-11-12 04:00:00,
2013-11-11 23:10:00,31.3,30.5,30.39,NW,325,3.0,3.0,97,0.00,,,0.08,Wunderground v.1.15,2013-11-12 04:10:00,
2013-11-11 23:15:00,31.2,30.4,30.38,NNW,339,3.0,5.0,97,0.00,,,0.08,Wunderground v.1.15,2013-11-12 04:15:00,
2013-11-11 23:20:00,31.2,30.4,30.39,NNW,329,4.0,4.0,97,0.00,,,0.08,Wunderground v.1.15,2013-11-12 04:20:00,
2013-11-11 23:25:00,31.0,30.0,30.38,NNW,337,4.0,5.0,96,0.00,,,0.08,Wunderground v.1.15,2013-11-12 04:25:00,
2013-11-11 23:30:00,31.0,30.0,30.38,NW,313,4.0,5.0,96,0.00,,,0.08,Wunderground v.1.15,2013-11-12 04:30:00,
2013-11-11 23:35:00,30.9,29.9,30.39,North,360,4.0,6.0,96,0.00,,,0.08,Wunderground v.1.15,2013-11-12 04:35:00,
2013-11-11 23:40:00,30.8,29.8,30.39,NW,317,4.0,9.0,96,0.00,,,0.08,Wunderground v.1.15,2013-11-12 04:40:00,
2013-11-11 23:45:00,30.7,29.4,30.39,NW,316,5.0,9.0,95,0.00,,,0.08,Wunderground v.1.15,2013-11-12 04:45:00,
2013-11-11 23:55:00,30.4,28.9,30.40,NW,306,5.0,8.0,94,0.00,,,0.08,Wunderground v.1.15,2013-11-12 04:55:00,